createdAt,value
2023-03-04T00:04:04.841Z,45.67
2023-03-04T00:09:04.918Z,44.70
2023-03-04T00:14:03.081Z,48.60
2023-03-04T00:19:01.242Z,48.42
2023-03-04T00:23:59.384Z,44.38
2023-03-04T00:28:58.918Z,45.42
2023-03-04T00:33:57.056Z,48.17
2023-03-04T00:38:55.595Z,47.63
2023-03-04T00:43:53.720Z,47.08
2023-03-04T00:48:53.214Z,49.75
2023-03-04T00:53:52.345Z,46.90
2023-03-04T00:58:50.789Z,42.92
2023-03-04T01:03:48.971Z,48.78
2023-03-04T01:08:48.492Z,46.92
2023-03-04T01:13:46.813Z,43.13
2023-03-04T01:18:47.205Z,43.95
2023-03-04T01:23:45.335Z,41.42
2023-03-04T01:28:44.947Z,49.75
2023-03-04T01:33:43.119Z,42.95
2023-03-04T01:38:41.582Z,43.35
2023-03-04T01:43:39.973Z,46.40
2023-03-04T01:48:40.094Z,42.45
2023-03-04T01:53:38.325Z,42.95
2023-03-04T01:58:36.530Z,42.90
2023-03-04T02:03:34.723Z,40.83
2023-03-04T02:08:35.542Z,38.83
2023-03-04T02:13:34.555Z,39.13
2023-03-04T02:18:32.725Z,39.88
2023-03-04T02:23:34.266Z,44.22
2023-03-04T02:28:33.991Z,41.22
2023-03-04T02:33:33.278Z,39.72
2023-03-04T02:38:31.502Z,39.72
2023-03-04T02:43:29.807Z,43.60
2023-03-04T02:48:29.523Z,46.38
2023-03-04T02:53:27.763Z,43.80
2023-03-04T02:58:26.120Z,38.30
2023-03-04T03:03:24.423Z,37.83
2023-03-04T03:08:24.357Z,40.85
2023-03-04T03:13:22.592Z,41.05
2023-03-04T03:18:20.828Z,41.30
2023-03-04T03:23:21.007Z,37.85
2023-03-04T03:28:20.573Z,35.90
2023-03-04T03:33:18.777Z,42.88
2023-03-04T03:38:17.241Z,40.38
2023-03-04T03:43:15.362Z,38.60
2023-03-04T03:48:15.125Z,39.92
2023-03-04T03:53:13.290Z,38.67
2023-03-04T03:58:11.640Z,38.22
2023-03-04T04:03:10.510Z,37.17
2023-03-04T04:08:11.171Z,41.30
2023-03-04T04:13:09.496Z,47.63
2023-03-04T04:18:07.936Z,47.40
2023-03-04T04:23:06.126Z,75.93
2023-03-04T04:28:05.746Z,37.92
2023-03-04T04:33:04.908Z,33.17
2023-03-04T04:38:03.164Z,32.92
2023-03-04T04:43:01.660Z,32.25
2023-03-04T04:48:01.202Z,33.15
2023-03-04T04:52:59.346Z,33.05
2023-03-04T04:57:57.585Z,31.13
2023-03-04T05:02:55.728Z,26.48
2023-03-04T05:07:55.276Z,31.58
2023-03-04T05:12:53.405Z,28.48
2023-03-04T05:17:51.729Z,30.15
2023-03-04T05:22:49.914Z,31.60
2023-03-04T05:27:49.508Z,28.70
2023-03-04T05:32:47.675Z,30.13
2023-03-04T05:37:45.844Z,30.55
2023-03-04T05:42:43.973Z,30.17
2023-03-04T05:47:43.488Z,29.10
2023-03-04T05:52:41.695Z,28.67
2023-03-04T05:57:39.955Z,32.97
2023-03-04T06:02:38.689Z,28.27
2023-03-04T06:07:38.216Z,31.63
2023-03-04T06:12:36.591Z,30.83
2023-03-04T06:17:34.877Z,31.58
2023-03-04T06:22:33.009Z,31.00
2023-03-04T06:27:32.556Z,39.20
2023-03-04T06:32:30.727Z,35.20
2023-03-04T06:37:28.859Z,33.17
2023-03-04T06:42:26.976Z,31.17
2023-03-04T06:47:26.502Z,34.75
2023-03-04T06:52:25.050Z,42.42
2023-03-04T06:57:23.195Z,33.17
2023-03-04T07:02:21.364Z,35.03
2023-03-04T07:07:20.888Z,33.90
2023-03-04T07:12:19.079Z,34.80
2023-03-04T07:17:17.285Z,30.02
2023-03-04T07:22:15.496Z,26.40
2023-03-04T07:27:15.008Z,29.75
2023-03-04T07:32:13.303Z,24.77
2023-03-04T07:37:11.543Z,24.00
2023-03-04T07:42:09.724Z,23.52
2023-03-04T07:47:13.237Z,27.17
2023-03-04T07:52:11.418Z,34.03
2023-03-04T07:57:09.554Z,26.05
2023-03-04T08:02:08.267Z,29.10
2023-03-04T08:07:07.785Z,32.10
2023-03-04T08:12:06.171Z,26.90
2023-03-04T08:17:04.306Z,24.73
2023-03-04T08:22:02.635Z,24.58
2023-03-04T08:27:02.498Z,38.00
2023-03-04T08:32:00.855Z,43.58
2023-03-04T08:36:59.070Z,31.30
2023-03-04T08:41:57.190Z,29.77
2023-03-04T08:46:56.693Z,27.95
2023-03-04T08:51:54.817Z,44.47
2023-03-04T08:56:52.951Z,30.83
2023-03-04T09:01:51.117Z,25.73
2023-03-04T09:06:52.269Z,26.98
2023-03-04T09:11:51.900Z,27.50
2023-03-04T09:16:50.059Z,45.08
2023-03-04T09:21:48.196Z,38.28
2023-03-04T09:26:50.939Z,59.17
2023-03-04T09:31:49.292Z,32.08
2023-03-04T09:36:47.586Z,35.88
2023-03-04T09:41:48.281Z,30.17
2023-03-04T09:46:46.743Z,29.30
2023-03-04T09:51:48.054Z,32.50
2023-03-04T09:56:47.563Z,32.45
2023-03-04T10:01:48.818Z,37.35
2023-03-04T10:06:54.389Z,33.03
2023-03-04T10:11:59.724Z,29.88
2023-03-04T10:16:59.748Z,35.70
2023-03-04T10:21:58.159Z,33.47
2023-03-04T10:27:02.425Z,27.73
2023-03-04T10:32:00.773Z,29.67
2023-03-04T10:37:00.582Z,33.25
2023-03-04T10:42:01.641Z,25.83
2023-03-04T10:47:00.006Z,26.38
2023-03-04T10:52:03.230Z,22.10
2023-03-04T10:57:03.655Z,25.15
2023-03-04T11:02:02.432Z,28.25
2023-03-04T11:07:00.563Z,30.70
2023-03-04T11:12:01.087Z,35.42
2023-03-04T11:17:01.121Z,30.92
2023-03-04T11:21:59.923Z,24.85
2023-03-04T11:27:00.695Z,22.38
2023-03-04T11:32:04.362Z,29.35
2023-03-04T11:37:05.150Z,25.85
2023-03-04T11:42:06.232Z,34.58
2023-03-04T11:47:13.333Z,22.63
2023-03-04T11:52:17.534Z,19.95
2023-03-04T11:57:24.197Z,19.38
2023-03-04T12:02:25.071Z,21.30
2023-03-04T12:07:32.354Z,22.60
2023-03-04T12:12:40.066Z,22.95
2023-03-04T12:17:44.834Z,22.52
2023-03-04T12:22:45.274Z,21.67
2023-03-04T12:27:45.084Z,28.33
2023-03-04T12:32:48.781Z,33.92
2023-03-04T12:37:58.842Z,30.58
2023-03-04T12:43:02.773Z,23.15
2023-03-04T12:48:07.568Z,31.33
2023-03-04T12:53:10.680Z,26.65
2023-03-04T12:58:13.718Z,24.52
2023-03-04T13:03:15.859Z,23.05
2023-03-04T13:08:17.738Z,26.08
2023-03-04T13:13:36.950Z,26.67
2023-03-04T13:18:38.445Z,19.45
2023-03-04T13:23:36.601Z,17.73
2023-03-04T13:28:35.902Z,22.30
2023-03-04T13:33:53.397Z,23.02
2023-03-04T13:38:58.428Z,24.77
2023-03-04T13:43:56.901Z,31.00
2023-03-04T13:49:03.735Z,31.33
2023-03-04T13:54:09.097Z,22.80
2023-03-04T13:59:22.826Z,26.50
2023-03-04T14:04:25.019Z,24.98
2023-03-04T14:09:24.121Z,27.02
2023-03-04T14:14:23.945Z,43.80
2023-03-04T14:19:25.789Z,26.58
2023-03-04T14:24:24.803Z,36.78
2023-03-04T14:29:26.022Z,60.60
2023-03-04T14:34:29.964Z,98.05
2023-03-04T14:39:30.859Z,117.20
2023-03-04T14:44:35.872Z,67.28
2023-03-04T14:49:36.590Z,46.90
2023-03-04T14:54:36.201Z,44.10
2023-03-04T14:59:36.015Z,35.58
2023-03-04T15:04:38.732Z,36.90
2023-03-04T15:09:37.052Z,46.53
2023-03-04T15:14:54.082Z,36.42
2023-03-04T15:20:04.924Z,38.65
2023-03-04T15:25:03.539Z,41.17
2023-03-04T15:30:02.319Z,37.72
2023-03-04T15:35:00.527Z,39.10
2023-03-04T15:40:00.233Z,42.90
2023-03-04T15:44:58.463Z,27.98
2023-03-04T15:49:56.617Z,39.58
2023-03-04T15:54:54.754Z,44.20
2023-03-04T15:59:54.546Z,40.72
2023-03-04T16:04:52.683Z,54.90
2023-03-04T16:09:53.402Z,45.47
2023-03-04T16:14:52.832Z,64.88
2023-03-04T16:19:52.387Z,95.90
2023-03-04T16:24:50.595Z,46.53
2023-03-04T16:29:48.976Z,32.80
2023-03-04T16:34:47.871Z,56.15
2023-03-04T16:39:49.216Z,42.00
2023-03-04T16:44:47.532Z,41.08
2023-03-04T16:49:45.691Z,49.85
2023-03-04T16:54:43.822Z,53.58
2023-03-04T16:59:43.439Z,43.20
2023-03-04T17:04:41.601Z,34.17
2023-03-04T17:09:39.834Z,31.00
2023-03-04T17:14:38.572Z,23.80
2023-03-04T17:19:38.078Z,25.67
2023-03-04T17:24:37.541Z,39.03
2023-03-04T17:29:37.273Z,69.28
2023-03-04T17:34:35.553Z,41.70
2023-03-04T17:39:35.085Z,30.17
2023-03-04T17:44:33.264Z,37.63
2023-03-04T17:49:31.391Z,47.08
2023-03-04T17:54:29.548Z,40.90
2023-03-04T17:59:29.059Z,36.90
2023-03-04T18:04:27.248Z,39.95
2023-03-04T18:09:25.390Z,78.47
2023-03-04T18:14:23.592Z,45.40
2023-03-04T18:19:23.094Z,56.05
2023-03-04T18:24:21.300Z,49.13
2023-03-04T18:29:19.561Z,33.97
2023-03-04T18:34:17.753Z,49.20
2023-03-04T18:39:17.712Z,32.72
2023-03-04T18:44:15.857Z,31.35
2023-03-04T18:49:15.485Z,41.17
2023-03-04T18:54:13.756Z,24.17
2023-03-04T18:59:17.200Z,31.52
2023-03-04T19:04:16.284Z,30.60
2023-03-04T19:09:14.551Z,25.60
2023-03-04T19:14:14.069Z,28.77
2023-03-04T19:19:12.321Z,25.73
2023-03-04T19:24:10.462Z,33.10
2023-03-04T19:29:08.657Z,22.30
2023-03-04T19:34:08.455Z,23.73
2023-03-04T19:39:06.687Z,21.50
2023-03-04T19:44:04.860Z,21.20
2023-03-04T19:49:03.250Z,26.35
2023-03-04T19:54:02.956Z,21.98
2023-03-04T19:59:02.471Z,24.30
2023-03-04T20:04:01.605Z,26.30
2023-03-04T20:09:00.648Z,35.83
2023-03-04T20:14:01.607Z,25.65
2023-03-04T20:19:00.096Z,22.08
2023-03-04T20:23:58.490Z,30.70
2023-03-04T20:28:56.681Z,24.65
2023-03-04T20:33:56.552Z,36.72
2023-03-04T20:39:02.047Z,42.90
2023-03-04T20:44:01.761Z,51.20
2023-03-04T20:49:02.182Z,45.08
2023-03-04T20:54:00.762Z,38.85
2023-03-04T20:59:00.871Z,38.53
2023-03-04T21:03:59.431Z,34.95
2023-03-04T21:09:01.927Z,35.20
2023-03-04T21:14:00.151Z,26.48
2023-03-04T21:18:58.316Z,22.58
2023-03-04T21:23:57.678Z,19.45
2023-03-04T21:28:57.234Z,24.95
2023-03-04T21:33:56.601Z,25.60
2023-03-04T21:38:54.773Z,23.63
2023-03-04T21:43:53.166Z,24.70
2023-03-04T21:48:52.695Z,29.02
2023-03-04T21:53:50.993Z,34.22
2023-03-04T21:58:49.168Z,26.58
2023-03-04T22:03:48.803Z,29.05
2023-03-04T22:08:48.436Z,29.02
2023-03-04T22:13:46.656Z,31.55
2023-03-04T22:18:44.762Z,29.98
2023-03-04T22:23:43.296Z,26.65
2023-03-04T22:28:42.972Z,24.17
2023-03-04T22:33:41.182Z,25.90
2023-03-04T22:38:39.344Z,26.40
2023-03-04T22:43:37.467Z,25.80
2023-03-04T22:48:36.981Z,25.73
2023-03-04T22:53:35.135Z,29.88
2023-03-04T22:58:33.483Z,25.98
2023-03-04T23:03:32.016Z,29.67
2023-03-04T23:08:31.545Z,26.52
2023-03-04T23:13:29.863Z,26.30
2023-03-04T23:18:27.976Z,24.30
2023-03-04T23:23:26.270Z,32.90
2023-03-04T23:28:25.814Z,25.95
2023-03-04T23:33:23.937Z,29.67
2023-03-04T23:38:22.515Z,26.33
2023-03-04T23:43:20.668Z,30.83
2023-03-04T23:48:20.199Z,29.77
2023-03-04T23:53:19.678Z,29.88
2023-03-04T23:58:17.814Z,36.03
